In Rescue
 
Open Full Screen Window  High Contrast Mode
July 01, 2022 8:51 AM CDT
Weather Information
Wind Direction
  ---
Wind Speed
  00 kt (0 mph)
Wind Gust
  00 kt (0 mph)
Altimeter
30.03 in
Visibility
10 SM
Temperature
21° C
70° F
Dewpoint
10° C
50° F
Humidity
50%
1hr Rain Fall
00.00 in.
24hr Rain Fall
00.01 in.
Sky Condition
Clear
VFR

METAR KSGS 011351Z AUTO 00000KT 10SM CLR 21/10 A3003 RMK AO2 T02090102

FAA Disclaimer: The data displayed is for advisory purposes only and is not to be used for flight planning or operations.